sensor_id;sensor_type;location;lat;lon;timestamp;P1;durP1;ratioP1;P2;durP2;ratioP2
1308;SDS011;647;48.840;9.314;2023-01-29T00:01:10;69.80;;;11.30;;
1308;SDS011;647;48.840;9.314;2023-01-29T00:03:37;73.40;;;11.38;;
1308;SDS011;647;48.840;9.314;2023-01-29T00:06:05;69.57;;;12.95;;
1308;SDS011;647;48.840;9.314;2023-01-29T00:08:34;70.15;;;13.68;;
1308;SDS011;647;48.840;9.314;2023-01-29T00:11:01;67.03;;;11.32;;
1308;SDS011;647;48.840;9.314;2023-01-29T00:13:28;69.97;;;10.57;;
1308;SDS011;647;48.840;9.314;2023-01-29T00:15:56;68.75;;;11.88;;
1308;SDS011;647;48.840;9.314;2023-01-29T00:18:24;65.13;;;9.93;;
1308;SDS011;647;48.840;9.314;2023-01-29T00:20:51;67.07;;;9.10;;
1308;SDS011;647;48.840;9.314;2023-01-29T00:23:19;65.18;;;9.68;;
1308;SDS011;647;48.840;9.314;2023-01-29T00:25:47;63.20;;;8.82;;
1308;SDS011;647;48.840;9.314;2023-01-29T00:28:14;65.63;;;9.45;;
1308;SDS011;647;48.840;9.314;2023-01-29T00:30:42;65.35;;;9.73;;
1308;SDS011;647;48.840;9.314;2023-01-29T00:33:09;66.22;;;10.23;;
1308;SDS011;647;48.840;9.314;2023-01-29T00:35:38;67.10;;;11.00;;
1308;SDS011;647;48.840;9.314;2023-01-29T00:38:06;70.72;;;12.23;;
1308;SDS011;647;48.840;9.314;2023-01-29T00:40:35;67.63;;;11.45;;
1308;SDS011;647;48.840;9.314;2023-01-29T00:43:17;64.07;;;9.85;;
1308;SDS011;647;48.840;9.314;2023-01-29T00:46:02;63.75;;;9.80;;
1308;SDS011;647;48.840;9.314;2023-01-29T00:48:30;68.00;;;10.10;;
1308;SDS011;647;48.840;9.314;2023-01-29T00:50:58;65.95;;;10.18;;
1308;SDS011;647;48.840;9.314;2023-01-29T00:53:25;65.38;;;9.85;;
1308;SDS011;647;48.840;9.314;2023-01-29T00:55:52;63.55;;;8.70;;
1308;SDS011;647;48.840;9.314;2023-01-29T00:58:21;65.82;;;10.88;;
1308;SDS011;647;48.840;9.314;2023-01-29T01:00:52;65.15;;;10.30;;
1308;SDS011;647;48.840;9.314;2023-01-29T01:03:19;64.63;;;9.68;;
1308;SDS011;647;48.840;9.314;2023-01-29T01:05:45;64.60;;;10.30;;
1308;SDS011;647;48.840;9.314;2023-01-29T01:08:13;65.20;;;9.57;;
1308;SDS011;647;48.840;9.314;2023-01-29T01:11:09;66.30;;;9.77;;
1308;SDS011;647;48.840;9.314;2023-01-29T01:13:37;66.45;;;9.88;;
1308;SDS011;647;48.840;9.314;2023-01-29T01:16:07;65.35;;;9.85;;
1308;SDS011;647;48.840;9.314;2023-01-29T01:18:34;64.93;;;9.60;;
1308;SDS011;647;48.840;9.314;2023-01-29T01:21:02;66.43;;;9.73;;
1308;SDS011;647;48.840;9.314;2023-01-29T01:23:29;66.43;;;9.77;;
1308;SDS011;647;48.840;9.314;2023-01-29T01:25:56;64.80;;;9.82;;
1308;SDS011;647;48.840;9.314;2023-01-29T01:28:24;63.40;;;9.20;;
1308;SDS011;647;48.840;9.314;2023-01-29T01:30:52;66.32;;;9.93;;
1308;SDS011;647;48.840;9.314;2023-01-29T01:33:20;65.45;;;8.95;;
1308;SDS011;647;48.840;9.314;2023-01-29T01:35:47;65.47;;;10.27;;
1308;SDS011;647;48.840;9.314;2023-01-29T01:38:14;66.43;;;9.82;;
1308;SDS011;647;48.840;9.314;2023-01-29T01:40:43;63.17;;;9.10;;
1308;SDS011;647;48.840;9.314;2023-01-29T01:43:10;68.10;;;9.98;;
1308;SDS011;647;48.840;9.314;2023-01-29T01:45:37;65.30;;;8.85;;
1308;SDS011;647;48.840;9.314;2023-01-29T01:48:08;66.00;;;9.95;;
1308;SDS011;647;48.840;9.314;2023-01-29T01:50:37;65.50;;;9.30;;
1308;SDS011;647;48.840;9.314;2023-01-29T01:53:08;65.43;;;9.43;;
1308;SDS011;647;48.840;9.314;2023-01-29T01:55:37;64.97;;;10.65;;
1308;SDS011;647;48.840;9.314;2023-01-29T01:58:05;63.38;;;8.93;;
1308;SDS011;647;48.840;9.314;2023-01-29T02:00:34;65.85;;;10.48;;
1308;SDS011;647;48.840;9.314;2023-01-29T02:03:02;65.68;;;9.52;;
1308;SDS011;647;48.840;9.314;2023-01-29T02:05:48;64.03;;;9.57;;
1308;SDS011;647;48.840;9.314;2023-01-29T02:08:34;64.78;;;9.40;;
1308;SDS011;647;48.840;9.314;2023-01-29T02:11:21;63.33;;;8.40;;
1308;SDS011;647;48.840;9.314;2023-01-29T02:13:48;64.95;;;9.40;;
1308;SDS011;647;48.840;9.314;2023-01-29T02:16:17;68.82;;;8.70;;
1308;SDS011;647;48.840;9.314;2023-01-29T02:18:45;64.70;;;9.20;;
1308;SDS011;647;48.840;9.314;2023-01-29T02:26:48;65.30;;;9.85;;
1308;SDS011;647;48.840;9.314;2023-01-29T02:29:18;64.10;;;9.32;;
1308;SDS011;647;48.840;9.314;2023-01-29T02:31:55;63.50;;;8.85;;
1308;SDS011;647;48.840;9.314;2023-01-29T02:34:26;64.30;;;9.07;;
1308;SDS011;647;48.840;9.314;2023-01-29T02:36:56;64.13;;;9.30;;
1308;SDS011;647;48.840;9.314;2023-01-29T02:39:27;64.10;;;8.82;;
1308;SDS011;647;48.840;9.314;2023-01-29T02:41:57;67.63;;;9.38;;
1308;SDS011;647;48.840;9.314;2023-01-29T02:44:29;65.30;;;9.68;;
1308;SDS011;647;48.840;9.314;2023-01-29T02:47:00;65.45;;;9.38;;
1308;SDS011;647;48.840;9.314;2023-01-29T02:49:30;63.42;;;9.02;;
1308;SDS011;647;48.840;9.314;2023-01-29T02:52:00;63.47;;;8.45;;
1308;SDS011;647;48.840;9.314;2023-01-29T02:54:30;64.50;;;8.50;;
1308;SDS011;647;48.840;9.314;2023-01-29T02:56:59;64.05;;;9.35;;
1308;SDS011;647;48.840;9.314;2023-01-29T02:59:30;65.53;;;9.73;;
1308;SDS011;647;48.840;9.314;2023-01-29T03:02:00;63.60;;;9.63;;
1308;SDS011;647;48.840;9.314;2023-01-29T03:04:30;64.97;;;8.90;;
1308;SDS011;647;48.840;9.314;2023-01-29T03:06:59;65.45;;;8.85;;
1308;SDS011;647;48.840;9.314;2023-01-29T03:09:30;64.13;;;9.07;;
1308;SDS011;647;48.840;9.314;2023-01-29T03:12:00;65.00;;;9.10;;
1308;SDS011;647;48.840;9.314;2023-01-29T03:14:44;67.32;;;10.20;;
1308;SDS011;647;48.840;9.314;2023-01-29T03:17:32;64.10;;;9.38;;
1308;SDS011;647;48.840;9.314;2023-01-29T03:20:01;65.60;;;9.25;;
1308;SDS011;647;48.840;9.314;2023-01-29T03:22:30;67.93;;;8.25;;
1308;SDS011;647;48.840;9.314;2023-01-29T03:24:58;63.08;;;8.73;;
1308;SDS011;647;48.840;9.314;2023-01-29T03:27:45;65.63;;;8.65;;
1308;SDS011;647;48.840;9.314;2023-01-29T03:30:33;64.40;;;9.85;;
1308;SDS011;647;48.840;9.314;2023-01-29T03:33:20;77.82;;;9.90;;
1308;SDS011;647;48.840;9.314;2023-01-29T03:35:50;66.97;;;10.10;;
1308;SDS011;647;48.840;9.314;2023-01-29T03:38:19;66.53;;;9.52;;
1308;SDS011;647;48.840;9.314;2023-01-29T03:40:48;65.82;;;8.65;;
1308;SDS011;647;48.840;9.314;2023-01-29T03:43:19;65.07;;;9.02;;
1308;SDS011;647;48.840;9.314;2023-01-29T03:45:55;64.50;;;9.27;;
1308;SDS011;647;48.840;9.314;2023-01-29T03:48:27;64.03;;;9.00;;
1308;SDS011;647;48.840;9.314;2023-01-29T03:50:56;64.15;;;8.80;;
1308;SDS011;647;48.840;9.314;2023-01-29T03:53:28;63.53;;;8.73;;
1308;SDS011;647;48.840;9.314;2023-01-29T03:55:57;65.80;;;9.50;;
1308;SDS011;647;48.840;9.314;2023-01-29T03:58:28;63.80;;;9.00;;
1308;SDS011;647;48.840;9.314;2023-01-29T04:01:02;64.30;;;9.38;;
1308;SDS011;647;48.840;9.314;2023-01-29T04:03:31;64.78;;;8.82;;
1308;SDS011;647;48.840;9.314;2023-01-29T04:06:02;64.32;;;9.40;;
1308;SDS011;647;48.840;9.314;2023-01-29T04:08:34;64.95;;;8.68;;
1308;SDS011;647;48.840;9.314;2023-01-29T04:11:04;64.60;;;8.93;;
1308;SDS011;647;48.840;9.314;2023-01-29T04:13:32;63.40;;;8.77;;
1308;SDS011;647;48.840;9.314;2023-01-29T04:15:59;70.20;;;9.85;;
1308;SDS011;647;48.840;9.314;2023-01-29T04:18:29;64.68;;;9.18;;
1308;SDS011;647;48.840;9.314;2023-01-29T04:20:56;65.00;;;9.02;;
1308;SDS011;647;48.840;9.314;2023-01-29T04:23:24;65.25;;;9.65;;
1308;SDS011;647;48.840;9.314;2023-01-29T04:25:52;65.35;;;8.85;;
1308;SDS011;647;48.840;9.314;2023-01-29T04:28:34;63.85;;;8.98;;
1308;SDS011;647;48.840;9.314;2023-01-29T04:31:07;65.07;;;9.20;;
1308;SDS011;647;48.840;9.314;2023-01-29T04:33:38;66.53;;;9.32;;
1308;SDS011;647;48.840;9.314;2023-01-29T04:36:11;62.65;;;8.40;;
1308;SDS011;647;48.840;9.314;2023-01-29T04:38:46;65.45;;;9.32;;
1308;SDS011;647;48.840;9.314;2023-01-29T04:41:15;63.40;;;8.55;;
1308;SDS011;647;48.840;9.314;2023-01-29T04:43:48;63.55;;;9.07;;
1308;SDS011;647;48.840;9.314;2023-01-29T04:46:20;64.70;;;8.68;;
1308;SDS011;647;48.840;9.314;2023-01-29T04:48:56;66.22;;;9.60;;
1308;SDS011;647;48.840;9.314;2023-01-29T04:51:29;63.40;;;8.95;;
1308;SDS011;647;48.840;9.314;2023-01-29T04:53:58;65.30;;;8.65;;
1308;SDS011;647;48.840;9.314;2023-01-29T04:56:29;63.97;;;9.60;;
1308;SDS011;647;48.840;9.314;2023-01-29T04:59:00;65.68;;;9.85;;
1308;SDS011;647;48.840;9.314;2023-01-29T05:01:29;65.32;;;8.85;;
1308;SDS011;647;48.840;9.314;2023-01-29T05:03:58;66.90;;;10.65;;
1308;SDS011;647;48.840;9.314;2023-01-29T05:06:27;71.38;;;9.43;;
1308;SDS011;647;48.840;9.314;2023-01-29T05:08:54;63.53;;;9.27;;
1308;SDS011;647;48.840;9.314;2023-01-29T05:11:22;64.72;;;9.40;;
1308;SDS011;647;48.840;9.314;2023-01-29T05:13:50;65.38;;;10.05;;
1308;SDS011;647;48.840;9.314;2023-01-29T05:16:18;64.78;;;8.70;;
1308;SDS011;647;48.840;9.314;2023-01-29T05:18:47;65.63;;;9.30;;
1308;SDS011;647;48.840;9.314;2023-01-29T05:21:15;65.05;;;10.00;;
1308;SDS011;647;48.840;9.314;2023-01-29T05:23:42;64.55;;;9.30;;
1308;SDS011;647;48.840;9.314;2023-01-29T05:26:17;68.20;;;9.80;;
1308;SDS011;647;48.840;9.314;2023-01-29T05:29:01;64.20;;;9.93;;
1308;SDS011;647;48.840;9.314;2023-01-29T05:31:29;65.85;;;10.18;;
1308;SDS011;647;48.840;9.314;2023-01-29T05:33:56;66.60;;;9.65;;
1308;SDS011;647;48.840;9.314;2023-01-29T05:36:24;65.45;;;9.18;;
1308;SDS011;647;48.840;9.314;2023-01-29T05:38:51;67.45;;;9.85;;
1308;SDS011;647;48.840;9.314;2023-01-29T05:41:19;66.15;;;11.00;;
1308;SDS011;647;48.840;9.314;2023-01-29T05:43:46;66.93;;;10.45;;
1308;SDS011;647;48.840;9.314;2023-01-29T05:46:13;66.07;;;10.05;;
1308;SDS011;647;48.840;9.314;2023-01-29T05:48:40;67.20;;;9.50;;
1308;SDS011;647;48.840;9.314;2023-01-29T05:51:07;63.80;;;9.10;;
1308;SDS011;647;48.840;9.314;2023-01-29T05:53:35;65.70;;;9.63;;
1308;SDS011;647;48.840;9.314;2023-01-29T05:56:03;64.80;;;9.43;;
1308;SDS011;647;48.840;9.314;2023-01-29T05:58:30;66.97;;;9.18;;
1308;SDS011;647;48.840;9.314;2023-01-29T06:01:06;66.75;;;9.82;;
1308;SDS011;647;48.840;9.314;2023-01-29T06:03:33;65.95;;;11.15;;
1308;SDS011;647;48.840;9.314;2023-01-29T06:06:00;66.00;;;9.88;;
1308;SDS011;647;48.840;9.314;2023-01-29T06:08:27;67.03;;;10.25;;
1308;SDS011;647;48.840;9.314;2023-01-29T06:10:56;67.35;;;9.63;;
1308;SDS011;647;48.840;9.314;2023-01-29T06:13:23;69.28;;;10.30;;
1308;SDS011;647;48.840;9.314;2023-01-29T06:15:50;67.10;;;10.10;;
1308;SDS011;647;48.840;9.314;2023-01-29T06:18:17;68.10;;;9.82;;
1308;SDS011;647;48.840;9.314;2023-01-29T06:20:44;65.82;;;10.10;;
1308;SDS011;647;48.840;9.314;2023-01-29T06:23:11;65.90;;;9.50;;
1308;SDS011;647;48.840;9.314;2023-01-29T06:25:38;65.05;;;9.93;;
1308;SDS011;647;48.840;9.314;2023-01-29T06:28:07;66.13;;;9.20;;
1308;SDS011;647;48.840;9.314;2023-01-29T06:30:34;64.82;;;10.02;;
1308;SDS011;647;48.840;9.314;2023-01-29T06:33:01;65.85;;;10.50;;
1308;SDS011;647;48.840;9.314;2023-01-29T06:35:28;68.00;;;10.68;;
1308;SDS011;647;48.840;9.314;2023-01-29T06:37:55;63.20;;;9.07;;
1308;SDS011;647;48.840;9.314;2023-01-29T06:40:22;63.75;;;9.10;;
1308;SDS011;647;48.840;9.314;2023-01-29T06:42:49;64.88;;;9.27;;
1308;SDS011;647;48.840;9.314;2023-01-29T06:45:18;67.10;;;9.57;;
1308;SDS011;647;48.840;9.314;2023-01-29T06:47:45;63.30;;;8.60;;
1308;SDS011;647;48.840;9.314;2023-01-29T06:50:12;66.35;;;9.82;;
1308;SDS011;647;48.840;9.314;2023-01-29T06:52:39;65.35;;;8.98;;
1308;SDS011;647;48.840;9.314;2023-01-29T06:55:06;67.78;;;10.68;;
1308;SDS011;647;48.840;9.314;2023-01-29T06:57:34;71.55;;;10.85;;
1308;SDS011;647;48.840;9.314;2023-01-29T07:00:01;64.95;;;9.50;;
1308;SDS011;647;48.840;9.314;2023-01-29T07:02:29;66.75;;;9.68;;
1308;SDS011;647;48.840;9.314;2023-01-29T07:04:56;69.00;;;10.13;;
1308;SDS011;647;48.840;9.314;2023-01-29T07:07:23;65.20;;;9.82;;
1308;SDS011;647;48.840;9.314;2023-01-29T07:09:51;67.60;;;10.38;;
1308;SDS011;647;48.840;9.314;2023-01-29T07:12:18;67.72;;;10.88;;
1308;SDS011;647;48.840;9.314;2023-01-29T07:14:45;66.68;;;10.50;;
1308;SDS011;647;48.840;9.314;2023-01-29T07:17:12;67.28;;;11.20;;
1308;SDS011;647;48.840;9.314;2023-01-29T07:19:40;65.55;;;10.32;;
1308;SDS011;647;48.840;9.314;2023-01-29T07:22:07;67.32;;;11.40;;
1308;SDS011;647;48.840;9.314;2023-01-29T07:24:35;65.43;;;10.27;;
1308;SDS011;647;48.840;9.314;2023-01-29T07:27:02;68.35;;;10.93;;
1308;SDS011;647;48.840;9.314;2023-01-29T07:29:29;63.63;;;9.10;;
1308;SDS011;647;48.840;9.314;2023-01-29T07:31:56;65.47;;;10.20;;
1308;SDS011;647;48.840;9.314;2023-01-29T07:34:23;64.95;;;10.20;;
1308;SDS011;647;48.840;9.314;2023-01-29T07:36:52;66.10;;;10.60;;
1308;SDS011;647;48.840;9.314;2023-01-29T07:39:20;67.85;;;10.55;;
1308;SDS011;647;48.840;9.314;2023-01-29T07:41:47;67.07;;;11.40;;
1308;SDS011;647;48.840;9.314;2023-01-29T07:44:15;64.88;;;10.15;;
1308;SDS011;647;48.840;9.314;2023-01-29T07:46:42;66.25;;;10.35;;
1308;SDS011;647;48.840;9.314;2023-01-29T07:49:09;66.30;;;10.00;;
1308;SDS011;647;48.840;9.314;2023-01-29T07:51:36;69.47;;;11.63;;
1308;SDS011;647;48.840;9.314;2023-01-29T07:54:04;72.78;;;12.98;;
1308;SDS011;647;48.840;9.314;2023-01-29T07:56:31;69.80;;;13.02;;
1308;SDS011;647;48.840;9.314;2023-01-29T07:58:59;64.85;;;10.15;;
1308;SDS011;647;48.840;9.314;2023-01-29T08:01:26;67.57;;;9.63;;
1308;SDS011;647;48.840;9.314;2023-01-29T08:03:53;68.75;;;10.40;;
1308;SDS011;647;48.840;9.314;2023-01-29T08:06:20;66.65;;;9.98;;
1308;SDS011;647;48.840;9.314;2023-01-29T08:08:47;70.10;;;10.75;;
1308;SDS011;647;48.840;9.314;2023-01-29T08:11:17;64.40;;;10.18;;
1308;SDS011;647;48.840;9.314;2023-01-29T08:13:44;65.28;;;10.35;;
1308;SDS011;647;48.840;9.314;2023-01-29T08:16:11;66.47;;;9.93;;
1308;SDS011;647;48.840;9.314;2023-01-29T08:18:38;66.93;;;10.65;;
1308;SDS011;647;48.840;9.314;2023-01-29T08:21:08;65.90;;;10.43;;
1308;SDS011;647;48.840;9.314;2023-01-29T08:23:35;69.13;;;11.15;;
1308;SDS011;647;48.840;9.314;2023-01-29T08:26:02;65.63;;;10.55;;
1308;SDS011;647;48.840;9.314;2023-01-29T08:28:31;67.57;;;11.48;;
1308;SDS011;647;48.840;9.314;2023-01-29T08:30:58;68.15;;;10.07;;
1308;SDS011;647;48.840;9.314;2023-01-29T08:33:25;67.22;;;10.45;;
1308;SDS011;647;48.840;9.314;2023-01-29T08:35:53;65.43;;;9.85;;
1308;SDS011;647;48.840;9.314;2023-01-29T08:38:20;66.35;;;10.40;;
1308;SDS011;647;48.840;9.314;2023-01-29T08:40:47;66.43;;;10.02;;
1308;SDS011;647;48.840;9.314;2023-01-29T08:43:15;64.55;;;9.45;;
1308;SDS011;647;48.840;9.314;2023-01-29T08:45:44;66.20;;;10.55;;
1308;SDS011;647;48.840;9.314;2023-01-29T08:48:11;65.88;;;10.70;;
1308;SDS011;647;48.840;9.314;2023-01-29T08:50:38;66.03;;;10.40;;
1308;SDS011;647;48.840;9.314;2023-01-29T08:53:06;66.80;;;11.30;;
1308;SDS011;647;48.840;9.314;2023-01-29T08:55:34;69.90;;;11.65;;
1308;SDS011;647;48.840;9.314;2023-01-29T08:58:02;65.35;;;10.45;;
1308;SDS011;647;48.840;9.314;2023-01-29T09:00:29;65.13;;;10.10;;
1308;SDS011;647;48.840;9.314;2023-01-29T09:02:57;68.72;;;11.23;;
1308;SDS011;647;48.840;9.314;2023-01-29T09:05:25;66.00;;;11.10;;
1308;SDS011;647;48.840;9.314;2023-01-29T09:07:52;66.20;;;10.88;;
1308;SDS011;647;48.840;9.314;2023-01-29T09:10:19;68.93;;;10.45;;
1308;SDS011;647;48.840;9.314;2023-01-29T09:12:46;67.47;;;10.90;;
1308;SDS011;647;48.840;9.314;2023-01-29T09:15:14;66.82;;;11.07;;
1308;SDS011;647;48.840;9.314;2023-01-29T09:17:41;66.07;;;9.90;;
1308;SDS011;647;48.840;9.314;2023-01-29T09:20:10;67.60;;;10.60;;
1308;SDS011;647;48.840;9.314;2023-01-29T09:22:37;65.18;;;10.23;;
1308;SDS011;647;48.840;9.314;2023-01-29T09:25:04;65.45;;;9.77;;
1308;SDS011;647;48.840;9.314;2023-01-29T09:27:32;64.22;;;9.93;;
1308;SDS011;647;48.840;9.314;2023-01-29T09:29:59;66.78;;;11.18;;
1308;SDS011;647;48.840;9.314;2023-01-29T09:32:26;66.53;;;10.50;;
1308;SDS011;647;48.840;9.314;2023-01-29T09:34:54;66.40;;;9.90;;
1308;SDS011;647;48.840;9.314;2023-01-29T09:37:22;70.18;;;11.75;;
1308;SDS011;647;48.840;9.314;2023-01-29T09:39:50;69.30;;;10.98;;
1308;SDS011;647;48.840;9.314;2023-01-29T09:42:17;65.70;;;11.45;;
1308;SDS011;647;48.840;9.314;2023-01-29T09:44:48;67.03;;;10.60;;
1308;SDS011;647;48.840;9.314;2023-01-29T09:47:20;68.03;;;10.57;;
1308;SDS011;647;48.840;9.314;2023-01-29T09:49:50;70.40;;;10.73;;
1308;SDS011;647;48.840;9.314;2023-01-29T09:52:19;63.45;;;10.02;;
1308;SDS011;647;48.840;9.314;2023-01-29T09:54:52;64.72;;;9.23;;
1308;SDS011;647;48.840;9.314;2023-01-29T09:57:23;68.15;;;10.30;;
1308;SDS011;647;48.840;9.314;2023-01-29T09:59:51;67.07;;;9.77;;
1308;SDS011;647;48.840;9.314;2023-01-29T10:02:21;70.03;;;12.32;;
1308;SDS011;647;48.840;9.314;2023-01-29T10:04:54;75.35;;;17.27;;
1308;SDS011;647;48.840;9.314;2023-01-29T10:07:32;66.28;;;11.57;;
1308;SDS011;647;48.840;9.314;2023-01-29T10:10:05;75.45;;;16.15;;
1308;SDS011;647;48.840;9.314;2023-01-29T10:12:39;64.25;;;10.07;;
1308;SDS011;647;48.840;9.314;2023-01-29T10:15:12;66.22;;;10.00;;
1308;SDS011;647;48.840;9.314;2023-01-29T10:17:47;65.50;;;10.25;;
1308;SDS011;647;48.840;9.314;2023-01-29T10:20:25;67.10;;;9.93;;
1308;SDS011;647;48.840;9.314;2023-01-29T10:22:56;65.22;;;10.27;;
1308;SDS011;647;48.840;9.314;2023-01-29T10:25:28;65.65;;;10.48;;
1308;SDS011;647;48.840;9.314;2023-01-29T10:27:56;65.22;;;10.05;;
1308;SDS011;647;48.840;9.314;2023-01-29T10:30:28;65.68;;;10.57;;
1308;SDS011;647;48.840;9.314;2023-01-29T10:32:58;65.80;;;9.48;;
1308;SDS011;647;48.840;9.314;2023-01-29T10:35:28;65.90;;;9.55;;
1308;SDS011;647;48.840;9.314;2023-01-29T10:37:57;67.05;;;11.15;;
1308;SDS011;647;48.840;9.314;2023-01-29T10:40:27;65.63;;;10.80;;
1308;SDS011;647;48.840;9.314;2023-01-29T10:42:59;64.75;;;10.73;;
1308;SDS011;647;48.840;9.314;2023-01-29T10:45:30;66.35;;;10.35;;
1308;SDS011;647;48.840;9.314;2023-01-29T10:48:06;65.93;;;11.23;;
1308;SDS011;647;48.840;9.314;2023-01-29T10:50:41;68.05;;;10.80;;
1308;SDS011;647;48.840;9.314;2023-01-29T10:53:16;66.78;;;11.20;;
1308;SDS011;647;48.840;9.314;2023-01-29T10:55:45;67.15;;;11.35;;
1308;SDS011;647;48.840;9.314;2023-01-29T10:58:18;65.30;;;10.18;;
1308;SDS011;647;48.840;9.314;2023-01-29T11:00:46;66.95;;;11.20;;
1308;SDS011;647;48.840;9.314;2023-01-29T11:03:14;65.90;;;11.15;;
1308;SDS011;647;48.840;9.314;2023-01-29T11:05:43;66.90;;;10.93;;
1308;SDS011;647;48.840;9.314;2023-01-29T11:08:12;67.07;;;11.27;;
1308;SDS011;647;48.840;9.314;2023-01-29T11:10:42;63.72;;;9.98;;
1308;SDS011;647;48.840;9.314;2023-01-29T11:13:12;67.45;;;11.20;;
1308;SDS011;647;48.840;9.314;2023-01-29T11:15:41;68.90;;;11.57;;
1308;SDS011;647;48.840;9.314;2023-01-29T11:18:10;65.78;;;10.93;;
1308;SDS011;647;48.840;9.314;2023-01-29T11:20:39;66.38;;;10.90;;
1308;SDS011;647;48.840;9.314;2023-01-29T11:23:18;64.38;;;10.32;;
1308;SDS011;647;48.840;9.314;2023-01-29T11:25:50;67.10;;;11.25;;
1308;SDS011;647;48.840;9.314;2023-01-29T11:31:01;64.93;;;9.70;;
1308;SDS011;647;48.840;9.314;2023-01-29T11:33:28;66.80;;;11.02;;
1308;SDS011;647;48.840;9.314;2023-01-29T11:35:56;65.97;;;11.00;;
1308;SDS011;647;48.840;9.314;2023-01-29T11:38:23;66.93;;;12.07;;
1308;SDS011;647;48.840;9.314;2023-01-29T11:40:51;65.82;;;11.73;;
1308;SDS011;647;48.840;9.314;2023-01-29T11:43:19;66.38;;;11.57;;
1308;SDS011;647;48.840;9.314;2023-01-29T11:45:47;68.45;;;11.25;;
1308;SDS011;647;48.840;9.314;2023-01-29T11:48:16;67.90;;;12.25;;
1308;SDS011;647;48.840;9.314;2023-01-29T11:50:49;67.93;;;12.43;;
1308;SDS011;647;48.840;9.314;2023-01-29T11:53:21;66.18;;;10.85;;
1308;SDS011;647;48.840;9.314;2023-01-29T11:55:49;67.65;;;11.57;;
1308;SDS011;647;48.840;9.314;2023-01-29T11:58:17;66.13;;;12.43;;
1308;SDS011;647;48.840;9.314;2023-01-29T12:00:47;68.88;;;12.88;;
1308;SDS011;647;48.840;9.314;2023-01-29T12:03:19;70.70;;;11.85;;
1308;SDS011;647;48.840;9.314;2023-01-29T12:05:51;66.57;;;12.18;;
1308;SDS011;647;48.840;9.314;2023-01-29T12:08:19;69.22;;;12.15;;
1308;SDS011;647;48.840;9.314;2023-01-29T12:10:47;67.80;;;12.10;;
1308;SDS011;647;48.840;9.314;2023-01-29T12:13:19;69.95;;;10.85;;
1308;SDS011;647;48.840;9.314;2023-01-29T12:15:47;69.07;;;11.52;;
1308;SDS011;647;48.840;9.314;2023-01-29T12:18:15;67.67;;;11.97;;
1308;SDS011;647;48.840;9.314;2023-01-29T12:20:46;66.80;;;11.73;;
1308;SDS011;647;48.840;9.314;2023-01-29T12:23:21;67.00;;;11.57;;
1308;SDS011;647;48.840;9.314;2023-01-29T12:25:52;67.77;;;11.77;;
1308;SDS011;647;48.840;9.314;2023-01-29T12:28:22;65.90;;;11.23;;
1308;SDS011;647;48.840;9.314;2023-01-29T12:30:56;67.13;;;11.87;;
1308;SDS011;647;48.840;9.314;2023-01-29T12:33:25;65.73;;;11.80;;
1308;SDS011;647;48.840;9.314;2023-01-29T12:35:57;67.73;;;11.87;;
1308;SDS011;647;48.840;9.314;2023-01-29T12:38:27;69.07;;;12.17;;
1308;SDS011;647;48.840;9.314;2023-01-29T12:40:55;68.20;;;12.30;;
1308;SDS011;647;48.840;9.314;2023-01-29T12:43:25;66.70;;;12.30;;
1308;SDS011;647;48.840;9.314;2023-01-29T12:45:53;68.90;;;12.07;;
1308;SDS011;647;48.840;9.314;2023-01-29T12:48:22;67.77;;;12.63;;
1308;SDS011;647;48.840;9.314;2023-01-29T12:50:50;66.73;;;11.80;;
1308;SDS011;647;48.840;9.314;2023-01-29T12:53:22;67.17;;;11.50;;
1308;SDS011;647;48.840;9.314;2023-01-29T12:55:51;68.33;;;13.03;;
1308;SDS011;647;48.840;9.314;2023-01-29T12:58:20;67.17;;;12.50;;
1308;SDS011;647;48.840;9.314;2023-01-29T13:00:49;66.87;;;12.20;;
1308;SDS011;647;48.840;9.314;2023-01-29T13:03:18;67.20;;;11.70;;
1308;SDS011;647;48.840;9.314;2023-01-29T13:05:47;68.67;;;14.17;;
1308;SDS011;647;48.840;9.314;2023-01-29T13:08:17;68.30;;;12.63;;
1308;SDS011;647;48.840;9.314;2023-01-29T13:10:48;66.80;;;12.10;;
1308;SDS011;647;48.840;9.314;2023-01-29T13:13:18;67.07;;;13.00;;
1308;SDS011;647;48.840;9.314;2023-01-29T13:15:47;68.17;;;12.30;;
1308;SDS011;647;48.840;9.314;2023-01-29T13:18:35;68.83;;;12.87;;
1308;SDS011;647;48.840;9.314;2023-01-29T13:21:03;71.13;;;11.83;;
1308;SDS011;647;48.840;9.314;2023-01-29T13:23:32;68.83;;;12.37;;
1308;SDS011;647;48.840;9.314;2023-01-29T13:26:01;67.80;;;12.47;;
1308;SDS011;647;48.840;9.314;2023-01-29T13:28:30;67.83;;;12.50;;
1308;SDS011;647;48.840;9.314;2023-01-29T13:31:10;67.83;;;12.17;;
1308;SDS011;647;48.840;9.314;2023-01-29T13:33:38;66.27;;;12.73;;
1308;SDS011;647;48.840;9.314;2023-01-29T13:36:07;69.20;;;12.20;;
1308;SDS011;647;48.840;9.314;2023-01-29T13:38:37;67.00;;;11.73;;
1308;SDS011;647;48.840;9.314;2023-01-29T13:41:07;65.67;;;12.10;;
1308;SDS011;647;48.840;9.314;2023-01-29T13:43:35;67.10;;;11.33;;
1308;SDS011;647;48.840;9.314;2023-01-29T13:46:05;66.87;;;12.20;;
1308;SDS011;647;48.840;9.314;2023-01-29T13:48:34;67.10;;;11.50;;
1308;SDS011;647;48.840;9.314;2023-01-29T13:51:08;68.07;;;12.30;;
1308;SDS011;647;48.840;9.314;2023-01-29T13:53:40;66.70;;;12.23;;
1308;SDS011;647;48.840;9.314;2023-01-29T13:58:55;67.00;;;11.30;;
1308;SDS011;647;48.840;9.314;2023-01-29T14:04:21;65.30;;;12.20;;
1308;SDS011;647;48.840;9.314;2023-01-29T14:06:50;68.03;;;10.93;;
1308;SDS011;647;48.840;9.314;2023-01-29T14:09:29;67.03;;;11.93;;
1308;SDS011;647;48.840;9.314;2023-01-29T14:11:56;65.50;;;11.30;;
1308;SDS011;647;48.840;9.314;2023-01-29T14:17:10;65.70;;;11.70;;
1308;SDS011;647;48.840;9.314;2023-01-29T14:19:38;68.97;;;12.70;;
1308;SDS011;647;48.840;9.314;2023-01-29T14:22:16;70.17;;;13.50;;
1308;SDS011;647;48.840;9.314;2023-01-29T14:24:45;69.60;;;12.00;;
1308;SDS011;647;48.840;9.314;2023-01-29T14:27:15;68.20;;;12.10;;
1308;SDS011;647;48.840;9.314;2023-01-29T14:29:45;70.00;;;12.53;;
1308;SDS011;647;48.840;9.314;2023-01-29T14:32:16;68.50;;;11.67;;
1308;SDS011;647;48.840;9.314;2023-01-29T14:34:45;68.93;;;12.60;;
1308;SDS011;647;48.840;9.314;2023-01-29T14:37:17;67.27;;;12.53;;
1308;SDS011;647;48.840;9.314;2023-01-29T14:39:46;67.50;;;11.73;;
1308;SDS011;647;48.840;9.314;2023-01-29T14:42:16;68.73;;;12.07;;
1308;SDS011;647;48.840;9.314;2023-01-29T14:53:05;68.70;;;12.27;;
1308;SDS011;647;48.840;9.314;2023-01-29T14:55:37;71.30;;;11.90;;
1308;SDS011;647;48.840;9.314;2023-01-29T14:58:05;66.00;;;12.00;;
1308;SDS011;647;48.840;9.314;2023-01-29T15:00:33;66.23;;;11.50;;
1308;SDS011;647;48.840;9.314;2023-01-29T15:03:03;65.93;;;12.00;;
1308;SDS011;647;48.840;9.314;2023-01-29T15:05:31;68.50;;;13.03;;
1308;SDS011;647;48.840;9.314;2023-01-29T15:08:02;65.90;;;12.33;;
1308;SDS011;647;48.840;9.314;2023-01-29T15:10:35;68.90;;;11.57;;
1308;SDS011;647;48.840;9.314;2023-01-29T15:13:03;68.77;;;12.77;;
1308;SDS011;647;48.840;9.314;2023-01-29T15:15:35;67.70;;;13.10;;
1308;SDS011;647;48.840;9.314;2023-01-29T15:18:04;65.23;;;10.90;;
1308;SDS011;647;48.840;9.314;2023-01-29T15:20:34;68.17;;;13.73;;
1308;SDS011;647;48.840;9.314;2023-01-29T15:23:01;64.77;;;11.07;;
1308;SDS011;647;48.840;9.314;2023-01-29T15:25:30;66.93;;;12.00;;
1308;SDS011;647;48.840;9.314;2023-01-29T15:28:01;66.77;;;13.13;;
1308;SDS011;647;48.840;9.314;2023-01-29T15:30:32;66.70;;;12.03;;
1308;SDS011;647;48.840;9.314;2023-01-29T15:33:00;67.63;;;12.60;;
1308;SDS011;647;48.840;9.314;2023-01-29T15:35:30;66.40;;;11.83;;
1308;SDS011;647;48.840;9.314;2023-01-29T15:38:01;66.90;;;11.37;;
1308;SDS011;647;48.840;9.314;2023-01-29T15:40:28;70.53;;;13.30;;
1308;SDS011;647;48.840;9.314;2023-01-29T15:42:56;65.67;;;11.30;;
1308;SDS011;647;48.840;9.314;2023-01-29T15:45:26;70.07;;;13.30;;
1308;SDS011;647;48.840;9.314;2023-01-29T15:47:54;68.40;;;12.20;;